createdAt,value
2022-09-28T00:00:08.051Z,987.83
2022-09-28T00:01:08.074Z,987.83
2022-09-28T00:02:08.139Z,987.80
2022-09-28T00:03:08.109Z,987.79
2022-09-28T00:04:08.036Z,987.79
2022-09-28T00:05:08.010Z,987.79
2022-09-28T00:06:08.034Z,987.76
2022-09-28T00:07:08.028Z,987.73
2022-09-28T00:08:07.967Z,987.71
2022-09-28T00:09:08.011Z,987.68
2022-09-28T00:10:07.947Z,987.65
2022-09-28T00:11:07.946Z,987.62
2022-09-28T00:12:07.944Z,987.59
2022-09-28T00:13:07.943Z,987.57
2022-09-28T00:14:07.942Z,987.58
2022-09-28T00:15:07.920Z,987.59
2022-09-28T00:16:07.916Z,987.57
2022-09-28T00:17:07.910Z,987.54
2022-09-28T00:18:07.870Z,987.52
2022-09-28T00:19:07.858Z,987.52
2022-09-28T00:20:07.861Z,987.51
2022-09-28T00:21:07.848Z,987.50
2022-09-28T00:22:07.853Z,987.48
2022-09-28T00:23:07.834Z,987.46
2022-09-28T00:24:07.810Z,987.42
2022-09-28T00:25:07.809Z,987.39
2022-09-28T00:26:07.823Z,987.36
2022-09-28T00:27:07.802Z,987.33
2022-09-28T00:28:07.791Z,987.30
2022-09-28T00:29:07.754Z,987.29
2022-09-28T00:30:07.763Z,987.28
2022-09-28T00:31:07.771Z,987.29
2022-09-28T00:32:07.728Z,987.27
2022-09-28T00:33:07.724Z,987.26
2022-09-28T00:34:07.742Z,987.25
2022-09-28T00:35:07.697Z,987.22
2022-09-28T00:36:07.709Z,987.18
2022-09-28T00:37:07.677Z,987.14
2022-09-28T00:38:07.683Z,987.11
2022-09-28T00:39:07.694Z,987.10
2022-09-28T00:40:07.648Z,987.11
2022-09-28T00:41:07.641Z,987.12
2022-09-28T00:42:07.647Z,987.13
2022-09-28T00:43:07.619Z,987.11
2022-09-28T00:44:07.611Z,987.07
2022-09-28T00:45:07.622Z,987.01
2022-09-28T00:46:07.651Z,986.98
2022-09-28T00:47:07.593Z,986.95
2022-09-28T00:48:07.561Z,986.93
2022-09-28T00:49:07.594Z,986.91
2022-09-28T00:50:07.543Z,986.88
2022-09-28T00:51:07.546Z,986.87
2022-09-28T00:52:07.549Z,986.85
2022-09-28T00:53:07.516Z,986.82
2022-09-28T00:54:07.512Z,986.81
2022-09-28T00:55:07.528Z,986.79
2022-09-28T00:56:07.578Z,986.79
2022-09-28T00:57:07.514Z,986.77
2022-09-28T00:58:07.482Z,986.74
2022-09-28T00:59:07.456Z,986.71
2022-09-28T01:00:07.447Z,986.69
2022-09-28T01:01:07.584Z,986.68
2022-09-28T01:02:07.450Z,986.66
2022-09-28T01:03:07.421Z,986.63
2022-09-28T01:04:07.402Z,986.62
2022-09-28T01:05:07.798Z,986.62
2022-09-28T01:06:07.403Z,986.61
2022-09-28T01:07:07.377Z,986.58
2022-09-28T01:08:07.375Z,986.56
2022-09-28T01:09:07.358Z,986.52
2022-09-28T01:10:07.344Z,986.49
2022-09-28T01:11:07.360Z,986.46
2022-09-28T01:12:07.317Z,986.45
2022-09-28T01:13:07.318Z,986.44
2022-09-28T01:14:07.308Z,986.42
2022-09-28T01:15:07.298Z,986.41
2022-09-28T01:16:07.349Z,986.40
2022-09-28T01:17:07.301Z,986.41
2022-09-28T01:18:07.260Z,986.40
2022-09-28T01:19:07.259Z,986.41
2022-09-28T01:20:07.244Z,986.41
2022-09-28T01:21:07.238Z,986.43
2022-09-28T01:22:07.231Z,986.43
2022-09-28T01:23:07.214Z,986.42
2022-09-28T01:24:07.207Z,986.41
2022-09-28T01:25:07.205Z,986.41
2022-09-28T01:26:07.185Z,986.39
2022-09-28T01:27:07.207Z,986.40
2022-09-28T01:28:07.158Z,986.39
2022-09-28T01:29:07.163Z,986.37
2022-09-28T01:30:07.148Z,986.38
2022-09-28T01:31:07.297Z,986.38
2022-09-28T01:32:07.138Z,986.38
2022-09-28T01:33:07.121Z,986.37
2022-09-28T01:34:07.103Z,986.36
2022-09-28T01:35:07.122Z,986.35
2022-09-28T01:36:07.090Z,986.36
2022-09-28T01:37:07.119Z,986.35
2022-09-28T01:38:07.066Z,986.35
2022-09-28T01:39:07.082Z,986.36
2022-09-28T01:40:07.042Z,986.35
2022-09-28T01:41:07.038Z,986.34
2022-09-28T01:42:07.075Z,986.35
2022-09-28T01:43:07.027Z,986.34
2022-09-28T01:44:07.027Z,986.32
2022-09-28T01:45:07.000Z,986.31
2022-09-28T01:46:07.054Z,986.28
2022-09-28T01:47:06.970Z,986.27
2022-09-28T01:48:06.992Z,986.29
2022-09-28T01:49:07.016Z,986.29
2022-09-28T01:50:06.937Z,986.27
2022-09-28T01:51:06.965Z,986.25
2022-09-28T01:52:06.931Z,986.25
2022-09-28T01:53:06.950Z,986.24
2022-09-28T01:54:06.903Z,986.22
2022-09-28T01:55:06.938Z,986.21
2022-09-28T01:56:06.894Z,986.21
2022-09-28T01:57:06.874Z,986.22
2022-09-28T01:58:06.873Z,986.23
2022-09-28T01:59:06.871Z,986.22
2022-09-28T02:00:06.839Z,986.24
2022-09-28T02:01:06.893Z,986.24
2022-09-28T02:02:06.874Z,986.25
2022-09-28T02:03:06.828Z,986.26
2022-09-28T02:04:06.813Z,986.27
2022-09-28T02:05:06.792Z,986.27
2022-09-28T02:06:06.812Z,986.28
2022-09-28T02:07:06.772Z,986.29
2022-09-28T02:08:06.778Z,986.31
2022-09-28T02:09:06.769Z,986.33
2022-09-28T02:10:06.736Z,986.35
2022-09-28T02:11:06.770Z,986.36
2022-09-28T02:12:06.726Z,986.36
2022-09-28T02:13:06.735Z,986.33
2022-09-28T02:14:06.734Z,986.29
2022-09-28T02:15:06.714Z,986.25
2022-09-28T02:16:06.696Z,986.25
2022-09-28T02:17:06.699Z,986.26
2022-09-28T02:18:06.679Z,986.29
2022-09-28T02:19:06.670Z,986.28
2022-09-28T02:20:06.692Z,986.23
2022-09-28T02:21:06.644Z,986.21
2022-09-28T02:22:06.616Z,986.22
2022-09-28T02:23:06.610Z,986.23
2022-09-28T02:24:06.611Z,986.21
2022-09-28T02:25:06.642Z,986.23
2022-09-28T02:26:06.597Z,986.15
2022-09-28T02:27:06.589Z,986.16
2022-09-28T02:28:06.556Z,986.15
2022-09-28T02:29:06.594Z,986.13
2022-09-28T02:30:06.537Z,986.13
2022-09-28T02:31:06.561Z,986.13
2022-09-28T02:32:06.518Z,986.12
2022-09-28T02:33:06.515Z,986.11
2022-09-28T02:34:06.571Z,986.09
2022-09-28T02:35:06.579Z,986.07
2022-09-28T02:36:06.486Z,986.06
2022-09-28T02:37:06.495Z,986.06
2022-09-28T02:38:06.467Z,986.05
2022-09-28T02:39:06.479Z,986.04
2022-09-28T02:40:06.475Z,986.04
2022-09-28T02:41:06.436Z,986.03
2022-09-28T02:42:06.437Z,986.00
2022-09-28T02:43:06.433Z,986.01
2022-09-28T02:44:06.409Z,986.01
2022-09-28T02:45:06.458Z,986.01
2022-09-28T02:46:06.465Z,986.00
2022-09-28T02:47:06.367Z,986.00
2022-09-28T02:48:06.357Z,985.99
2022-09-28T02:49:20.962Z,985.98
2022-09-28T02:50:06.364Z,985.97
2022-09-28T02:51:06.342Z,985.96
2022-09-28T02:52:06.328Z,985.95
2022-09-28T02:53:06.308Z,985.96
2022-09-28T02:54:06.297Z,986.00
2022-09-28T02:55:06.329Z,986.02
2022-09-28T02:56:06.279Z,986.04
2022-09-28T02:57:06.338Z,986.04
2022-09-28T02:58:06.294Z,986.01
2022-09-28T02:59:06.257Z,985.99
2022-09-28T03:00:06.235Z,985.98
2022-09-28T03:01:06.283Z,986.00
2022-09-28T03:02:06.268Z,986.00
2022-09-28T03:03:06.237Z,986.01
2022-09-28T03:04:06.215Z,986.00
2022-09-28T03:05:06.214Z,986.00
2022-09-28T03:06:06.177Z,986.00
2022-09-28T03:07:06.180Z,985.99
2022-09-28T03:08:06.178Z,985.97
2022-09-28T03:09:06.184Z,985.96
2022-09-28T03:10:06.135Z,985.98
2022-09-28T03:11:06.130Z,985.99
2022-09-28T03:12:06.135Z,985.99
2022-09-28T03:13:06.115Z,985.97
2022-09-28T03:14:06.100Z,985.98
2022-09-28T03:15:06.114Z,985.99
2022-09-28T03:16:06.177Z,986.01
2022-09-28T03:17:06.079Z,986.02
2022-09-28T03:18:06.056Z,986.04
2022-09-28T03:19:07.698Z,986.05
2022-09-28T03:20:06.034Z,986.05
2022-09-28T03:21:06.044Z,986.06
2022-09-28T03:22:08.683Z,986.05
2022-09-28T03:23:23.819Z,986.04
2022-09-28T03:24:06.008Z,986.03
2022-09-28T03:25:05.983Z,986.03
2022-09-28T03:26:07.635Z,986.04
2022-09-28T03:27:07.599Z,986.04
2022-09-28T03:28:05.962Z,986.04
2022-09-28T03:29:07.583Z,986.05
2022-09-28T03:30:05.957Z,986.05
2022-09-28T03:31:07.557Z,986.07
2022-09-28T03:32:08.615Z,986.04
2022-09-28T03:33:07.528Z,986.03
2022-09-28T03:34:05.913Z,986.02
2022-09-28T03:35:08.557Z,986.04
2022-09-28T03:36:05.917Z,986.02
2022-09-28T03:37:07.462Z,986.03
2022-09-28T03:38:07.465Z,986.03
2022-09-28T03:39:05.845Z,986.01
2022-09-28T03:40:08.564Z,986.01
2022-09-28T03:41:05.866Z,986.00
2022-09-28T03:42:05.843Z,986.00
2022-09-28T03:43:05.814Z,985.97
2022-09-28T03:44:05.826Z,985.95
2022-09-28T03:45:07.404Z,985.98
2022-09-28T03:46:07.512Z,985.96
2022-09-28T03:47:05.759Z,985.95
2022-09-28T03:48:07.383Z,985.94
2022-09-28T03:49:08.420Z,985.91
2022-09-28T03:50:07.376Z,985.89
2022-09-28T03:51:05.763Z,985.89
2022-09-28T03:52:08.762Z,985.89
2022-09-28T03:53:08.131Z,985.90
2022-09-28T03:54:07.344Z,985.89
2022-09-28T03:55:08.376Z,985.90
2022-09-28T03:56:05.710Z,985.88
2022-09-28T03:57:06.315Z,985.89
2022-09-28T03:58:08.344Z,985.88
2022-09-28T03:59:05.651Z,985.90
2022-09-28T04:00:07.275Z,985.90
2022-09-28T04:01:07.301Z,985.91
2022-09-28T04:02:05.744Z,985.92
2022-09-28T04:03:07.315Z,985.94
2022-09-28T04:04:05.600Z,985.95
2022-09-28T04:05:05.583Z,985.94
2022-09-28T04:06:07.205Z,985.95
2022-09-28T04:07:07.209Z,985.97
2022-09-28T04:08:05.581Z,986.00
2022-09-28T04:09:07.162Z,986.02
2022-09-28T04:10:07.225Z,986.04
2022-09-28T04:11:07.147Z,986.05
2022-09-28T04:12:07.161Z,986.07
2022-09-28T04:13:08.200Z,986.10
2022-09-28T04:14:07.119Z,986.12
2022-09-28T04:15:05.488Z,986.12
2022-09-28T04:16:05.613Z,986.13
2022-09-28T04:17:07.112Z,986.14
2022-09-28T04:18:05.460Z,986.15
2022-09-28T04:19:05.465Z,986.15
2022-09-28T04:20:05.437Z,986.16
2022-09-28T04:21:07.019Z,986.17
2022-09-28T04:22:05.376Z,986.19
2022-09-28T04:23:07.019Z,986.20
2022-09-28T04:24:07.015Z,986.20
2022-09-28T04:25:05.396Z,986.21
2022-09-28T04:26:05.317Z,986.19
2022-09-28T04:27:07.023Z,986.16
2022-09-28T04:28:05.355Z,986.14
2022-09-28T04:29:07.093Z,986.14
2022-09-28T04:30:05.335Z,986.14
2022-09-28T04:31:08.076Z,986.13
2022-09-28T04:32:05.427Z,986.11
2022-09-28T04:33:06.930Z,986.11
2022-09-28T04:34:05.245Z,986.12
2022-09-28T04:35:05.280Z,986.13
2022-09-28T04:36:05.278Z,986.15
2022-09-28T04:37:05.281Z,986.15
2022-09-28T04:38:05.197Z,986.12
2022-09-28T04:39:06.857Z,986.12
2022-09-28T04:40:05.268Z,986.11
2022-09-28T04:41:05.216Z,986.13
2022-09-28T04:42:05.212Z,986.13
2022-09-28T04:43:06.787Z,986.12
2022-09-28T04:44:05.188Z,986.10
2022-09-28T04:45:05.217Z,986.10
2022-09-28T04:46:07.883Z,986.11
2022-09-28T04:47:06.787Z,986.13
2022-09-28T04:48:05.171Z,986.16
2022-09-28T04:49:07.821Z,986.19
2022-09-28T04:50:06.706Z,986.20
2022-09-28T04:51:05.109Z,986.21
2022-09-28T04:52:05.156Z,986.21
2022-09-28T04:53:05.137Z,986.22
2022-09-28T04:54:05.039Z,986.22
2022-09-28T04:55:05.093Z,986.22
2022-09-28T04:56:05.022Z,986.23
2022-09-28T04:57:05.010Z,986.24
2022-09-28T04:58:06.761Z,986.27
2022-09-28T04:59:06.649Z,986.28
2022-09-28T05:00:06.731Z,986.29
2022-09-28T05:01:05.000Z,986.30
2022-09-28T05:02:05.709Z,986.31
2022-09-28T05:03:07.676Z,986.33
2022-09-28T05:04:09.766Z,986.33
2022-09-28T05:05:04.932Z,986.33
2022-09-28T05:06:06.525Z,986.32
2022-09-28T05:07:04.952Z,986.32
2022-09-28T05:08:04.931Z,986.32
2022-09-28T05:09:05.618Z,986.33
2022-09-28T05:10:04.877Z,986.33
2022-09-28T05:11:04.877Z,986.33
2022-09-28T05:12:04.869Z,986.34
2022-09-28T05:13:04.878Z,986.34
2022-09-28T05:14:06.473Z,986.36
2022-09-28T05:15:04.837Z,986.39
2022-09-28T05:16:05.685Z,986.40
2022-09-28T05:17:04.797Z,986.39
2022-09-28T05:18:04.865Z,986.38
2022-09-28T05:19:04.792Z,986.38
2022-09-28T05:20:09.017Z,986.38
2022-09-28T05:21:04.783Z,986.40
2022-09-28T05:22:04.771Z,986.41
2022-09-28T05:23:06.383Z,986.41
2022-09-28T05:24:06.350Z,986.41
2022-09-28T05:25:06.371Z,986.41
2022-09-28T05:26:06.316Z,986.40
2022-09-28T05:27:05.786Z,986.41
2022-09-28T05:28:04.726Z,986.42
2022-09-28T05:29:06.282Z,986.42
2022-09-28T05:30:04.702Z,986.43
2022-09-28T05:31:04.667Z,986.45
2022-09-28T05:32:06.325Z,986.46
2022-09-28T05:33:07.356Z,986.46
2022-09-28T05:34:06.246Z,986.47
2022-09-28T05:35:06.251Z,986.48
2022-09-28T05:36:04.620Z,986.50
2022-09-28T05:37:06.221Z,986.52
2022-09-28T05:38:06.191Z,986.53
2022-09-28T05:39:04.611Z,986.53
2022-09-28T05:40:07.259Z,986.54
2022-09-28T05:41:06.782Z,986.55
2022-09-28T05:42:04.556Z,986.54
2022-09-28T05:43:06.180Z,986.53
2022-09-28T05:44:04.563Z,986.55
2022-09-28T05:45:06.121Z,986.58
2022-09-28T05:46:04.618Z,986.60
2022-09-28T05:47:04.509Z,986.61
2022-09-28T05:48:06.097Z,986.61
2022-09-28T05:49:04.504Z,986.61
2022-09-28T05:50:06.123Z,986.61
2022-09-28T05:51:04.460Z,986.61
2022-09-28T05:52:04.455Z,986.62
2022-09-28T05:53:04.457Z,986.63
2022-09-28T05:54:06.131Z,986.64
2022-09-28T05:55:06.063Z,986.64
2022-09-28T05:56:04.426Z,986.66
2022-09-28T05:57:04.398Z,986.67
2022-09-28T05:58:06.059Z,986.68
2022-09-28T05:59:06.035Z,986.69
2022-09-28T06:00:04.373Z,986.69
2022-09-28T06:01:07.113Z,986.71
2022-09-28T06:02:07.144Z,986.72
2022-09-28T06:03:08.061Z,986.72
2022-09-28T06:04:05.962Z,986.74
2022-09-28T06:05:06.024Z,986.75
2022-09-28T06:06:06.053Z,986.76
2022-09-28T06:07:04.304Z,986.76
2022-09-28T06:08:04.309Z,986.76
2022-09-28T06:09:05.900Z,986.76
2022-09-28T06:10:04.281Z,986.76
2022-09-28T06:11:05.972Z,986.76
2022-09-28T06:12:06.980Z,986.75
2022-09-28T06:13:04.233Z,986.76
2022-09-28T06:14:04.247Z,986.75
2022-09-28T06:15:04.243Z,986.76
2022-09-28T06:16:04.251Z,986.78
2022-09-28T06:17:04.330Z,986.80
2022-09-28T06:18:04.186Z,986.80
2022-09-28T06:19:04.173Z,986.82
2022-09-28T06:20:05.878Z,986.83
2022-09-28T06:21:06.833Z,986.84
2022-09-28T06:22:06.869Z,986.85
2022-09-28T06:23:04.142Z,986.86
2022-09-28T06:24:04.140Z,986.86
2022-09-28T06:25:06.821Z,986.88
2022-09-28T06:26:05.737Z,986.89
2022-09-28T06:27:04.143Z,986.90
2022-09-28T06:28:04.132Z,986.93
2022-09-28T06:29:04.082Z,986.94
2022-09-28T06:30:04.074Z,986.95
2022-09-28T06:31:04.104Z,986.96
2022-09-28T06:32:04.083Z,986.97
2022-09-28T06:33:05.675Z,986.99
2022-09-28T06:34:04.064Z,986.99
2022-09-28T06:35:04.061Z,986.99
2022-09-28T06:36:04.677Z,987.00
2022-09-28T06:37:04.240Z,987.02
2022-09-28T06:38:03.995Z,987.04
2022-09-28T06:39:04.016Z,987.04
2022-09-28T06:40:06.706Z,987.05
2022-09-28T06:41:04.178Z,987.06
2022-09-28T06:42:04.305Z,987.07
2022-09-28T06:43:06.640Z,987.08
2022-09-28T06:44:03.930Z,987.08
2022-09-28T06:45:04.010Z,987.09
2022-09-28T06:46:04.039Z,987.08
2022-09-28T06:47:03.916Z,987.09
2022-09-28T06:48:05.510Z,987.08
2022-09-28T06:49:03.906Z,987.10
2022-09-28T06:50:03.879Z,987.12
2022-09-28T06:51:05.504Z,987.15
2022-09-28T06:52:05.898Z,987.19
2022-09-28T06:53:03.838Z,987.18
2022-09-28T06:54:03.940Z,987.19
2022-09-28T06:55:03.836Z,987.19
2022-09-28T06:56:05.470Z,987.20
2022-09-28T06:57:03.848Z,987.20
2022-09-28T06:58:03.844Z,987.21
2022-09-28T06:59:03.833Z,987.23
2022-09-28T07:00:06.484Z,987.25
2022-09-28T07:01:03.892Z,987.25
2022-09-28T07:02:03.882Z,987.27
2022-09-28T07:03:05.388Z,987.26
2022-09-28T07:04:05.381Z,987.26
2022-09-28T07:05:03.723Z,987.29
2022-09-28T07:06:05.317Z,987.30
2022-09-28T07:07:05.401Z,987.32
2022-09-28T07:08:03.713Z,987.33
2022-09-28T07:09:17.127Z,987.31
2022-09-28T07:10:03.714Z,987.31
2022-09-28T07:11:03.642Z,987.32
2022-09-28T07:12:03.665Z,987.31
2022-09-28T07:13:06.009Z,987.32
2022-09-28T07:14:03.639Z,987.33
2022-09-28T07:15:03.672Z,987.34
2022-09-28T07:16:03.609Z,987.35
2022-09-28T07:17:14.047Z,987.36
2022-09-28T07:18:04.249Z,987.36
2022-09-28T07:19:03.577Z,987.39
2022-09-28T07:20:17.454Z,987.39
2022-09-28T07:21:03.597Z,987.40
2022-09-28T07:22:05.592Z,987.42
2022-09-28T07:23:17.606Z,987.45
2022-09-28T07:24:04.193Z,987.45
2022-09-28T07:25:05.203Z,987.47
2022-09-28T07:26:05.307Z,987.49
2022-09-28T07:27:03.502Z,987.50
2022-09-28T07:28:03.474Z,987.51
2022-09-28T07:29:05.161Z,987.52
2022-09-28T07:30:03.466Z,987.54
2022-09-28T07:31:03.713Z,987.56
2022-09-28T07:32:03.446Z,987.59
2022-09-28T07:33:03.440Z,987.61
2022-09-28T07:34:05.031Z,987.64
2022-09-28T07:35:05.087Z,987.66
2022-09-28T07:36:03.393Z,987.66
2022-09-28T07:37:05.010Z,987.67
2022-09-28T07:38:03.369Z,987.68
2022-09-28T07:39:05.043Z,987.70
2022-09-28T07:40:05.056Z,987.72
2022-09-28T07:41:03.394Z,987.74
2022-09-28T07:42:04.907Z,987.75
2022-09-28T07:43:03.344Z,987.77
2022-09-28T07:44:06.151Z,987.77
2022-09-28T07:45:03.329Z,987.80
2022-09-28T07:46:03.516Z,987.82
2022-09-28T07:47:03.286Z,987.84
2022-09-28T07:48:03.429Z,987.85
2022-09-28T07:49:05.750Z,987.86
2022-09-28T07:50:03.322Z,987.87
2022-09-28T07:51:03.258Z,987.90
2022-09-28T07:52:03.243Z,987.90
2022-09-28T07:53:03.271Z,987.92
2022-09-28T07:54:03.214Z,987.95
2022-09-28T07:55:06.796Z,987.99
2022-09-28T07:56:03.180Z,988.01
2022-09-28T07:57:03.197Z,988.04
2022-09-28T07:58:03.204Z,988.06
2022-09-28T07:59:04.786Z,988.06
2022-09-28T08:00:04.754Z,988.08
2022-09-28T08:01:03.208Z,988.08
2022-09-28T08:02:05.866Z,988.10
2022-09-28T08:03:03.174Z,988.12
2022-09-28T08:04:03.141Z,988.13
2022-09-28T08:05:03.192Z,988.14
2022-09-28T08:06:03.155Z,988.16
2022-09-28T08:07:05.840Z,988.17
2022-09-28T08:08:04.675Z,988.18
2022-09-28T08:09:04.679Z,988.18
2022-09-28T08:10:03.073Z,988.18
2022-09-28T08:11:03.041Z,988.19
2022-09-28T08:12:03.027Z,988.21
2022-09-28T08:13:03.294Z,988.21
2022-09-28T08:14:04.615Z,988.20
2022-09-28T08:15:03.016Z,988.21
2022-09-28T08:16:03.007Z,988.22
2022-09-28T08:17:04.753Z,988.24
2022-09-28T08:18:03.124Z,988.27
2022-09-28T08:19:04.576Z,988.29
2022-09-28T08:20:02.964Z,988.28
2022-09-28T08:21:02.929Z,988.31
2022-09-28T08:22:04.643Z,988.29
2022-09-28T08:23:02.990Z,988.31
2022-09-28T08:24:02.905Z,988.31
2022-09-28T08:25:02.930Z,988.30
2022-09-28T08:26:04.580Z,988.36
2022-09-28T08:27:03.031Z,988.35
2022-09-28T08:28:04.554Z,988.33
2022-09-28T08:29:02.979Z,988.35
2022-09-28T08:30:02.921Z,988.37
2022-09-28T08:31:02.987Z,988.39
2022-09-28T08:32:02.834Z,988.39
2022-09-28T08:33:02.847Z,988.40
2022-09-28T08:34:02.798Z,988.43
2022-09-28T08:35:02.821Z,988.45
2022-09-28T08:36:02.839Z,988.46
2022-09-28T08:37:05.467Z,988.42
2022-09-28T08:38:02.813Z,988.46
2022-09-28T08:39:02.741Z,988.47
2022-09-28T08:40:02.792Z,988.51
2022-09-28T08:41:02.832Z,988.51
2022-09-28T08:42:04.332Z,988.53
2022-09-28T08:43:02.779Z,988.52
2022-09-28T08:44:02.785Z,988.50
2022-09-28T08:45:04.308Z,988.50
2022-09-28T08:46:02.733Z,988.48
2022-09-28T08:47:04.304Z,988.51
2022-09-28T08:48:02.663Z,988.54
2022-09-28T08:49:23.610Z,988.54
2022-09-28T08:50:02.656Z,988.54
2022-09-28T08:51:04.230Z,988.55
2022-09-28T08:52:02.594Z,988.56
2022-09-28T08:53:02.595Z,988.57
2022-09-28T08:54:02.598Z,988.58
2022-09-28T08:55:05.273Z,988.57
2022-09-28T08:56:02.562Z,988.57
2022-09-28T08:57:02.547Z,988.56
2022-09-28T08:58:02.555Z,988.55
2022-09-28T08:59:02.567Z,988.54
2022-09-28T09:00:02.522Z,988.53
2022-09-28T09:01:04.240Z,988.54
2022-09-28T09:02:02.547Z,988.55
2022-09-28T09:03:04.208Z,988.55
2022-09-28T09:04:04.205Z,988.56
2022-09-28T09:05:02.576Z,988.56
2022-09-28T09:06:02.458Z,988.56
2022-09-28T09:07:05.146Z,988.55
2022-09-28T09:08:02.447Z,988.54
2022-09-28T09:09:02.479Z,988.55
2022-09-28T09:10:02.471Z,988.55
2022-09-28T09:11:02.409Z,988.57
2022-09-28T09:12:02.416Z,988.56
2022-09-28T09:13:02.494Z,988.57
2022-09-28T09:14:02.388Z,988.57
2022-09-28T09:15:02.377Z,988.59
2022-09-28T09:16:02.371Z,988.61
2022-09-28T09:17:02.399Z,988.61
2022-09-28T09:18:02.323Z,988.66
2022-09-28T09:19:02.346Z,988.68
2022-09-28T09:20:02.386Z,988.68
2022-09-28T09:21:02.326Z,988.68
2022-09-28T09:22:02.296Z,988.69
2022-09-28T09:23:02.293Z,988.68
2022-09-28T09:24:02.312Z,988.66
2022-09-28T09:25:02.300Z,988.66
2022-09-28T09:26:02.243Z,988.65
2022-09-28T09:27:02.261Z,988.68
2022-09-28T09:28:02.235Z,988.69
2022-09-28T09:29:02.263Z,988.69
2022-09-28T09:30:02.232Z,988.68
2022-09-28T09:31:02.270Z,988.68
2022-09-28T09:32:02.191Z,988.66
2022-09-28T09:33:02.186Z,988.68
2022-09-28T09:34:02.192Z,988.69
2022-09-28T09:35:02.177Z,988.70
2022-09-28T09:36:02.170Z,988.72
2022-09-28T09:37:02.190Z,988.72
2022-09-28T09:38:02.123Z,988.71
2022-09-28T09:39:03.771Z,988.70
2022-09-28T09:40:02.108Z,988.71
2022-09-28T09:41:03.837Z,988.69
2022-09-28T09:42:02.089Z,988.69
2022-09-28T09:43:02.100Z,988.71
2022-09-28T09:44:02.091Z,988.71
2022-09-28T09:45:02.071Z,988.71
2022-09-28T09:46:02.111Z,988.70
2022-09-28T09:47:02.076Z,988.69
2022-09-28T09:48:02.078Z,988.69
2022-09-28T09:49:02.036Z,988.69
2022-09-28T09:50:05.426Z,988.67
2022-09-28T09:51:02.005Z,988.68
2022-09-28T09:52:01.992Z,988.67
2022-09-28T09:53:01.979Z,988.68
2022-09-28T09:54:01.998Z,988.72
2022-09-28T09:55:03.565Z,988.71
2022-09-28T09:56:01.969Z,988.73
2022-09-28T09:57:01.986Z,988.71
2022-09-28T09:58:03.536Z,988.75
2022-09-28T09:59:01.942Z,988.75
2022-09-28T10:00:01.946Z,988.74
2022-09-28T10:01:01.991Z,988.79
2022-09-28T10:02:01.994Z,988.76
2022-09-28T10:03:01.894Z,988.78
2022-09-28T10:04:01.853Z,988.79
2022-09-28T10:05:04.535Z,988.79
2022-09-28T10:06:03.446Z,988.77
2022-09-28T10:07:03.463Z,988.78
2022-09-28T10:08:02.500Z,988.79
2022-09-28T10:09:01.811Z,988.80
2022-09-28T10:10:03.423Z,988.79
2022-09-28T10:11:03.439Z,988.79
2022-09-28T10:12:01.839Z,988.79
2022-09-28T10:13:01.777Z,988.80
2022-09-28T10:14:01.767Z,988.78
2022-09-28T10:15:01.756Z,988.76
2022-09-28T10:16:03.525Z,988.77
2022-09-28T10:17:01.758Z,988.76
2022-09-28T10:18:01.731Z,988.78
2022-09-28T10:19:01.766Z,988.77
2022-09-28T10:20:01.696Z,988.78
2022-09-28T10:21:01.776Z,988.77
2022-09-28T10:22:01.700Z,988.77
2022-09-28T10:23:01.899Z,988.79
2022-09-28T10:24:01.726Z,988.78
2022-09-28T10:25:01.668Z,988.77
2022-09-28T10:26:01.685Z,988.79
2022-09-28T10:27:01.630Z,988.78
2022-09-28T10:28:01.622Z,988.78
2022-09-28T10:29:03.232Z,988.78
2022-09-28T10:30:01.657Z,988.80
2022-09-28T10:31:03.302Z,988.80
2022-09-28T10:32:01.566Z,988.80
2022-09-28T10:33:01.550Z,988.81
2022-09-28T10:34:03.152Z,988.82
2022-09-28T10:35:03.172Z,988.86
2022-09-28T10:36:01.561Z,988.85
2022-09-28T10:37:01.519Z,988.89
2022-09-28T10:38:01.517Z,988.92
2022-09-28T10:39:01.504Z,988.95
2022-09-28T10:40:01.520Z,988.97
2022-09-28T10:41:01.582Z,988.98
2022-09-28T10:42:01.466Z,989.00
2022-09-28T10:43:01.474Z,989.03
2022-09-28T10:44:01.448Z,989.04
2022-09-28T10:45:01.465Z,989.04
2022-09-28T10:46:01.476Z,989.05
2022-09-28T10:47:01.411Z,989.05
2022-09-28T10:48:03.158Z,989.05
2022-09-28T10:49:01.394Z,989.07
2022-09-28T10:50:01.385Z,989.07
2022-09-28T10:51:01.387Z,989.08
2022-09-28T10:52:01.356Z,989.11
2022-09-28T10:53:02.948Z,989.09
2022-09-28T10:54:01.338Z,989.09
2022-09-28T10:55:01.322Z,989.09
2022-09-28T10:56:01.340Z,989.10
2022-09-28T10:57:01.318Z,989.11
2022-09-28T10:58:01.297Z,989.10
2022-09-28T10:59:01.282Z,989.11
2022-09-28T11:00:01.298Z,989.11
2022-09-28T11:01:01.396Z,989.11
2022-09-28T11:02:02.297Z,989.11
2022-09-28T11:03:02.971Z,989.11
2022-09-28T11:04:05.092Z,989.12
2022-09-28T11:05:03.010Z,989.11
2022-09-28T11:06:01.228Z,989.11
2022-09-28T11:07:01.478Z,989.10
2022-09-28T11:08:01.218Z,989.08
2022-09-28T11:09:01.172Z,989.05
2022-09-28T11:10:01.173Z,989.01
2022-09-28T11:11:01.174Z,988.99
2022-09-28T11:12:01.192Z,988.99
2022-09-28T11:13:01.167Z,989.00
2022-09-28T11:14:01.213Z,988.98
2022-09-28T11:15:01.158Z,988.96
2022-09-28T11:16:01.161Z,988.96
2022-09-28T11:17:02.833Z,988.97
2022-09-28T11:18:01.113Z,988.94
2022-09-28T11:19:01.175Z,988.95
2022-09-28T11:20:01.063Z,988.94
2022-09-28T11:21:01.073Z,988.93
2022-09-28T11:22:01.051Z,988.93
2022-09-28T11:23:01.047Z,988.94
2022-09-28T11:24:01.074Z,988.93
2022-09-28T11:25:01.013Z,988.88
2022-09-28T11:26:01.007Z,988.89
2022-09-28T11:27:00.988Z,988.88
2022-09-28T11:28:01.010Z,988.88
2022-09-28T11:29:01.027Z,988.87
2022-09-28T11:30:00.974Z,988.85
2022-09-28T11:31:01.037Z,988.85
2022-09-28T11:32:00.971Z,988.85
2022-09-28T11:33:00.939Z,988.83
2022-09-28T11:34:00.938Z,988.82
2022-09-28T11:35:00.951Z,988.82
2022-09-28T11:36:00.974Z,988.81
2022-09-28T11:37:01.824Z,988.82
2022-09-28T11:38:00.930Z,988.81
2022-09-28T11:39:00.890Z,988.81
2022-09-28T11:40:00.893Z,988.82
2022-09-28T11:41:00.916Z,988.84
2022-09-28T11:42:00.838Z,988.83
2022-09-28T11:43:00.878Z,988.82
2022-09-28T11:44:00.829Z,988.82
2022-09-28T11:45:00.834Z,988.80
2022-09-28T11:46:02.505Z,988.79
2022-09-28T11:47:00.815Z,988.82
2022-09-28T11:48:02.411Z,988.78
2022-09-28T11:49:02.381Z,988.78
2022-09-28T11:50:00.796Z,988.80
2022-09-28T11:51:02.378Z,988.77
2022-09-28T11:52:00.755Z,988.77
2022-09-28T11:53:00.720Z,988.75
2022-09-28T11:54:02.358Z,988.77
2022-09-28T11:55:00.725Z,988.81
2022-09-28T11:56:03.195Z,988.81
2022-09-28T11:57:00.702Z,988.80
2022-09-28T11:58:00.689Z,988.82
2022-09-28T11:59:02.296Z,988.81
2022-09-28T12:00:02.310Z,988.82
2022-09-28T12:01:00.666Z,988.81
2022-09-28T12:02:00.725Z,988.81
2022-09-28T12:03:00.756Z,988.82
2022-09-28T12:04:00.648Z,988.81
2022-09-28T12:05:00.603Z,988.81
2022-09-28T12:06:00.608Z,988.82
2022-09-28T12:07:00.609Z,988.81
2022-09-28T12:08:00.574Z,988.83
2022-09-28T12:09:00.570Z,988.85
2022-09-28T12:10:00.575Z,988.85
2022-09-28T12:11:00.556Z,988.87
2022-09-28T12:12:00.563Z,988.88
2022-09-28T12:13:00.594Z,988.87
2022-09-28T12:14:00.535Z,988.88
2022-09-28T12:15:00.498Z,988.86
2022-09-28T12:17:06.766Z,988.86
2022-09-28T12:18:00.545Z,988.87
2022-09-28T12:20:00.451Z,988.87
2022-09-28T12:21:04.982Z,988.87
2022-09-28T12:22:00.437Z,988.87
2022-09-28T12:23:00.416Z,988.92
2022-09-28T12:24:00.415Z,988.87
2022-09-28T12:25:00.431Z,988.87
2022-09-28T12:26:00.428Z,988.90
2022-09-28T12:27:00.379Z,988.89
2022-09-28T12:28:00.381Z,988.86
2022-09-28T12:29:00.371Z,988.88
2022-09-28T12:30:00.368Z,988.86